sensor_id;sensor_type;location;lat;lon;timestamp;P1;durP1;ratioP1;P2;durP2;ratioP2
74791;SDS011;63319;46.046;17.802;2023-12-14T00:01:00;17.92;;;9.60;;
74791;SDS011;63319;46.046;17.802;2023-12-14T00:04:03;12.30;;;7.30;;
74791;SDS011;63319;46.046;17.802;2023-12-14T00:07:07;13.25;;;8.25;;
74791;SDS011;63319;46.046;17.802;2023-12-14T00:10:10;12.93;;;7.38;;
74791;SDS011;63319;46.046;17.802;2023-12-14T00:13:15;15.30;;;8.13;;
74791;SDS011;63319;46.046;17.802;2023-12-14T00:16:18;16.52;;;9.77;;
74791;SDS011;63319;46.046;17.802;2023-12-14T00:19:23;18.98;;;10.73;;
74791;SDS011;63319;46.046;17.802;2023-12-14T00:22:26;16.13;;;10.05;;
74791;SDS011;63319;46.046;17.802;2023-12-14T00:25:29;16.40;;;10.05;;
74791;SDS011;63319;46.046;17.802;2023-12-14T00:28:32;12.90;;;8.00;;
74791;SDS011;63319;46.046;17.802;2023-12-14T00:31:36;14.52;;;8.65;;
74791;SDS011;63319;46.046;17.802;2023-12-14T00:34:39;12.90;;;7.73;;
74791;SDS011;63319;46.046;17.802;2023-12-14T00:37:44;11.52;;;7.47;;
74791;SDS011;63319;46.046;17.802;2023-12-14T00:40:47;11.77;;;7.38;;
74791;SDS011;63319;46.046;17.802;2023-12-14T00:43:50;11.73;;;7.40;;
74791;SDS011;63319;46.046;17.802;2023-12-14T00:46:53;13.48;;;7.45;;
74791;SDS011;63319;46.046;17.802;2023-12-14T00:49:56;18.75;;;9.20;;
74791;SDS011;63319;46.046;17.802;2023-12-14T00:52:59;18.70;;;10.07;;
74791;SDS011;63319;46.046;17.802;2023-12-14T00:56:03;14.85;;;8.30;;
74791;SDS011;63319;46.046;17.802;2023-12-14T00:59:06;14.35;;;7.82;;
74791;SDS011;63319;46.046;17.802;2023-12-14T01:02:09;11.98;;;7.40;;
74791;SDS011;63319;46.046;17.802;2023-12-14T01:05:12;12.17;;;7.43;;
74791;SDS011;63319;46.046;17.802;2023-12-14T01:08:16;19.15;;;9.20;;
74791;SDS011;63319;46.046;17.802;2023-12-14T01:11:19;16.55;;;8.55;;
74791;SDS011;63319;46.046;17.802;2023-12-14T01:14:22;15.63;;;8.00;;
74791;SDS011;63319;46.046;17.802;2023-12-14T01:17:26;17.55;;;9.10;;
74791;SDS011;63319;46.046;17.802;2023-12-14T01:20:30;19.05;;;9.30;;
74791;SDS011;63319;46.046;17.802;2023-12-14T01:23:33;17.15;;;9.77;;
74791;SDS011;63319;46.046;17.802;2023-12-14T01:26:36;16.25;;;9.43;;
74791;SDS011;63319;46.046;17.802;2023-12-14T01:29:40;17.00;;;9.63;;
74791;SDS011;63319;46.046;17.802;2023-12-14T01:32:43;12.43;;;7.30;;
74791;SDS011;63319;46.046;17.802;2023-12-14T01:35:46;11.90;;;7.20;;
74791;SDS011;63319;46.046;17.802;2023-12-14T01:38:50;13.75;;;7.13;;
74791;SDS011;63319;46.046;17.802;2023-12-14T01:41:53;13.18;;;7.50;;
74791;SDS011;63319;46.046;17.802;2023-12-14T01:44:56;13.40;;;7.77;;
74791;SDS011;63319;46.046;17.802;2023-12-14T01:47:59;13.68;;;8.13;;
74791;SDS011;63319;46.046;17.802;2023-12-14T01:51:02;15.27;;;9.00;;
74791;SDS011;63319;46.046;17.802;2023-12-14T01:54:06;22.63;;;12.82;;
74791;SDS011;63319;46.046;17.802;2023-12-14T01:57:09;20.63;;;11.38;;
74791;SDS011;63319;46.046;17.802;2023-12-14T02:00:14;19.83;;;10.68;;
74791;SDS011;63319;46.046;17.802;2023-12-14T02:03:24;19.52;;;10.45;;
74791;SDS011;63319;46.046;17.802;2023-12-14T02:06:28;15.97;;;9.13;;
74791;SDS011;63319;46.046;17.802;2023-12-14T02:09:30;16.95;;;9.95;;
74791;SDS011;63319;46.046;17.802;2023-12-14T02:12:34;15.10;;;8.82;;
74791;SDS011;63319;46.046;17.802;2023-12-14T02:15:38;15.70;;;9.50;;
74791;SDS011;63319;46.046;17.802;2023-12-14T02:18:41;15.85;;;9.45;;
74791;SDS011;63319;46.046;17.802;2023-12-14T02:21:44;15.27;;;9.20;;
74791;SDS011;63319;46.046;17.802;2023-12-14T02:24:47;20.00;;;10.80;;
74791;SDS011;63319;46.046;17.802;2023-12-14T02:27:51;18.27;;;11.80;;
74791;SDS011;63319;46.046;17.802;2023-12-14T02:30:54;18.02;;;11.13;;
74791;SDS011;63319;46.046;17.802;2023-12-14T02:33:57;17.92;;;10.13;;
74791;SDS011;63319;46.046;17.802;2023-12-14T02:37:00;23.50;;;8.47;;
74791;SDS011;63319;46.046;17.802;2023-12-14T02:40:04;16.10;;;10.13;;
74791;SDS011;63319;46.046;17.802;2023-12-14T02:43:07;17.33;;;10.02;;
74791;SDS011;63319;46.046;17.802;2023-12-14T02:46:11;13.23;;;9.00;;
74791;SDS011;63319;46.046;17.802;2023-12-14T02:49:18;17.67;;;10.40;;
74791;SDS011;63319;46.046;17.802;2023-12-14T02:52:21;16.58;;;9.57;;
74791;SDS011;63319;46.046;17.802;2023-12-14T02:55:25;16.58;;;10.13;;
74791;SDS011;63319;46.046;17.802;2023-12-14T02:58:27;14.65;;;9.02;;
74791;SDS011;63319;46.046;17.802;2023-12-14T03:01:31;15.90;;;10.45;;
74791;SDS011;63319;46.046;17.802;2023-12-14T03:04:34;18.58;;;11.13;;
74791;SDS011;63319;46.046;17.802;2023-12-14T03:07:37;20.43;;;11.73;;
74791;SDS011;63319;46.046;17.802;2023-12-14T03:10:40;17.15;;;10.73;;
74791;SDS011;63319;46.046;17.802;2023-12-14T03:13:43;22.38;;;12.40;;
74791;SDS011;63319;46.046;17.802;2023-12-14T03:16:46;17.33;;;10.57;;
74791;SDS011;63319;46.046;17.802;2023-12-14T03:19:51;14.52;;;9.07;;
74791;SDS011;63319;46.046;17.802;2023-12-14T03:22:54;15.82;;;9.93;;
74791;SDS011;63319;46.046;17.802;2023-12-14T03:25:58;15.30;;;9.88;;
74791;SDS011;63319;46.046;17.802;2023-12-14T03:29:01;16.02;;;10.50;;
74791;SDS011;63319;46.046;17.802;2023-12-14T03:32:04;16.05;;;10.15;;
74791;SDS011;63319;46.046;17.802;2023-12-14T03:35:08;15.38;;;9.85;;
74791;SDS011;63319;46.046;17.802;2023-12-14T03:38:11;16.70;;;9.53;;
74791;SDS011;63319;46.046;17.802;2023-12-14T03:41:15;18.10;;;10.02;;
74791;SDS011;63319;46.046;17.802;2023-12-14T03:44:19;15.30;;;9.05;;
74791;SDS011;63319;46.046;17.802;2023-12-14T03:47:22;14.10;;;8.77;;
74791;SDS011;63319;46.046;17.802;2023-12-14T03:50:25;14.10;;;8.93;;
74791;SDS011;63319;46.046;17.802;2023-12-14T03:53:28;15.93;;;9.73;;
74791;SDS011;63319;46.046;17.802;2023-12-14T03:56:31;17.63;;;10.35;;
74791;SDS011;63319;46.046;17.802;2023-12-14T03:59:38;16.67;;;10.50;;
74791;SDS011;63319;46.046;17.802;2023-12-14T04:02:41;20.40;;;11.48;;
74791;SDS011;63319;46.046;17.802;2023-12-14T04:05:45;18.00;;;10.15;;
74791;SDS011;63319;46.046;17.802;2023-12-14T04:08:48;15.30;;;9.43;;
74791;SDS011;63319;46.046;17.802;2023-12-14T04:11:51;16.25;;;10.30;;
74791;SDS011;63319;46.046;17.802;2023-12-14T04:14:54;17.40;;;10.18;;
74791;SDS011;63319;46.046;17.802;2023-12-14T04:17:57;17.50;;;10.93;;
74791;SDS011;63319;46.046;17.802;2023-12-14T04:21:00;17.58;;;10.10;;
74791;SDS011;63319;46.046;17.802;2023-12-14T04:24:04;18.83;;;10.45;;
74791;SDS011;63319;46.046;17.802;2023-12-14T04:27:07;17.15;;;9.77;;
74791;SDS011;63319;46.046;17.802;2023-12-14T04:30:11;15.73;;;9.50;;
74791;SDS011;63319;46.046;17.802;2023-12-14T04:33:14;15.40;;;9.45;;
74791;SDS011;63319;46.046;17.802;2023-12-14T04:36:17;16.73;;;9.18;;
74791;SDS011;63319;46.046;17.802;2023-12-14T04:39:20;14.37;;;9.00;;
74791;SDS011;63319;46.046;17.802;2023-12-14T04:42:24;20.13;;;10.25;;
74791;SDS011;63319;46.046;17.802;2023-12-14T04:45:27;18.85;;;10.45;;
74791;SDS011;63319;46.046;17.802;2023-12-14T04:48:30;18.80;;;12.03;;
74791;SDS011;63319;46.046;17.802;2023-12-14T04:51:33;21.05;;;12.20;;
74791;SDS011;63319;46.046;17.802;2023-12-14T04:54:37;19.10;;;11.57;;
74791;SDS011;63319;46.046;17.802;2023-12-14T04:57:42;19.52;;;11.32;;
74791;SDS011;63319;46.046;17.802;2023-12-14T05:00:46;18.92;;;11.70;;
74791;SDS011;63319;46.046;17.802;2023-12-14T05:03:49;17.50;;;10.90;;
74791;SDS011;63319;46.046;17.802;2023-12-14T05:06:53;19.50;;;11.43;;
74791;SDS011;63319;46.046;17.802;2023-12-14T05:09:56;21.00;;;10.90;;
74791;SDS011;63319;46.046;17.802;2023-12-14T05:12:59;22.75;;;12.57;;
74791;SDS011;63319;46.046;17.802;2023-12-14T05:16:03;20.77;;;11.70;;
74791;SDS011;63319;46.046;17.802;2023-12-14T05:19:06;18.33;;;11.30;;
74791;SDS011;63319;46.046;17.802;2023-12-14T05:22:09;16.92;;;9.85;;
74791;SDS011;63319;46.046;17.802;2023-12-14T05:25:13;18.23;;;10.90;;
74791;SDS011;63319;46.046;17.802;2023-12-14T05:28:17;15.40;;;9.48;;
74791;SDS011;63319;46.046;17.802;2023-12-14T05:31:21;14.25;;;8.95;;
74791;SDS011;63319;46.046;17.802;2023-12-14T05:34:25;13.25;;;8.55;;
74791;SDS011;63319;46.046;17.802;2023-12-14T05:37:28;13.15;;;8.43;;
74791;SDS011;63319;46.046;17.802;2023-12-14T05:40:31;14.43;;;7.70;;
74791;SDS011;63319;46.046;17.802;2023-12-14T05:43:34;12.40;;;7.50;;
74791;SDS011;63319;46.046;17.802;2023-12-14T05:46:39;13.57;;;8.20;;
74791;SDS011;63319;46.046;17.802;2023-12-14T05:49:42;16.03;;;8.30;;
74791;SDS011;63319;46.046;17.802;2023-12-14T05:52:46;15.90;;;9.80;;
74791;SDS011;63319;46.046;17.802;2023-12-14T05:55:49;16.88;;;10.32;;
74791;SDS011;63319;46.046;17.802;2023-12-14T05:58:52;13.00;;;8.18;;
74791;SDS011;63319;46.046;17.802;2023-12-14T06:01:58;12.70;;;7.22;;
74791;SDS011;63319;46.046;17.802;2023-12-14T06:05:02;13.98;;;6.97;;
74791;SDS011;63319;46.046;17.802;2023-12-14T06:08:06;10.18;;;5.93;;
74791;SDS011;63319;46.046;17.802;2023-12-14T06:11:09;11.93;;;6.63;;
74791;SDS011;63319;46.046;17.802;2023-12-14T06:14:12;13.57;;;7.35;;
74791;SDS011;63319;46.046;17.802;2023-12-14T06:17:16;13.18;;;6.93;;
74791;SDS011;63319;46.046;17.802;2023-12-14T06:20:19;10.27;;;6.07;;
74791;SDS011;63319;46.046;17.802;2023-12-14T06:23:23;11.20;;;6.82;;
74791;SDS011;63319;46.046;17.802;2023-12-14T06:26:28;12.05;;;6.72;;
74791;SDS011;63319;46.046;17.802;2023-12-14T06:29:31;10.32;;;6.25;;
74791;SDS011;63319;46.046;17.802;2023-12-14T06:32:35;12.57;;;7.72;;
74791;SDS011;63319;46.046;17.802;2023-12-14T06:35:38;14.35;;;7.93;;
74791;SDS011;63319;46.046;17.802;2023-12-14T06:38:41;13.25;;;8.43;;
74791;SDS011;63319;46.046;17.802;2023-12-14T06:41:44;16.87;;;8.90;;
74791;SDS011;63319;46.046;17.802;2023-12-14T06:44:48;15.90;;;9.48;;
74791;SDS011;63319;46.046;17.802;2023-12-14T06:47:51;18.23;;;10.60;;
74791;SDS011;63319;46.046;17.802;2023-12-14T06:50:54;16.37;;;9.80;;
74791;SDS011;63319;46.046;17.802;2023-12-14T06:53:57;16.88;;;9.27;;
74791;SDS011;63319;46.046;17.802;2023-12-14T06:57:01;23.08;;;12.93;;
74791;SDS011;63319;46.046;17.802;2023-12-14T07:00:04;18.10;;;10.23;;
74791;SDS011;63319;46.046;17.802;2023-12-14T07:03:10;17.55;;;9.80;;
74791;SDS011;63319;46.046;17.802;2023-12-14T07:06:14;13.55;;;8.45;;
74791;SDS011;63319;46.046;17.802;2023-12-14T07:09:18;12.35;;;7.85;;
74791;SDS011;63319;46.046;17.802;2023-12-14T07:12:21;12.70;;;6.40;;
74791;SDS011;63319;46.046;17.802;2023-12-14T07:15:25;11.43;;;6.85;;
74791;SDS011;63319;46.046;17.802;2023-12-14T07:18:28;13.48;;;7.65;;
74791;SDS011;63319;46.046;17.802;2023-12-14T07:21:31;16.57;;;8.23;;
74791;SDS011;63319;46.046;17.802;2023-12-14T07:24:34;15.75;;;8.98;;
74791;SDS011;63319;46.046;17.802;2023-12-14T07:27:50;12.65;;;7.15;;
74791;SDS011;63319;46.046;17.802;2023-12-14T07:30:53;14.20;;;7.65;;
74791;SDS011;63319;46.046;17.802;2023-12-14T07:33:58;11.18;;;6.57;;
74791;SDS011;63319;46.046;17.802;2023-12-14T07:37:01;10.65;;;7.07;;
74791;SDS011;63319;46.046;17.802;2023-12-14T07:40:04;11.50;;;7.32;;
74791;SDS011;63319;46.046;17.802;2023-12-14T07:43:08;10.67;;;6.87;;
74791;SDS011;63319;46.046;17.802;2023-12-14T07:46:11;10.35;;;6.03;;
74791;SDS011;63319;46.046;17.802;2023-12-14T07:49:14;15.40;;;7.30;;
74791;SDS011;63319;46.046;17.802;2023-12-14T07:52:18;16.20;;;7.77;;
74791;SDS011;63319;46.046;17.802;2023-12-14T07:55:21;12.65;;;7.88;;
74791;SDS011;63319;46.046;17.802;2023-12-14T07:58:25;12.15;;;7.35;;
74791;SDS011;63319;46.046;17.802;2023-12-14T08:01:28;12.27;;;6.20;;
74791;SDS011;63319;46.046;17.802;2023-12-14T08:04:32;10.32;;;6.28;;
74791;SDS011;63319;46.046;17.802;2023-12-14T08:07:36;10.93;;;6.20;;
74791;SDS011;63319;46.046;17.802;2023-12-14T08:10:39;11.18;;;6.80;;
74791;SDS011;63319;46.046;17.802;2023-12-14T08:13:42;10.00;;;5.93;;
74791;SDS011;63319;46.046;17.802;2023-12-14T08:16:45;10.90;;;5.82;;
74791;SDS011;63319;46.046;17.802;2023-12-14T08:19:48;10.30;;;6.70;;
74791;SDS011;63319;46.046;17.802;2023-12-14T08:22:51;11.93;;;7.00;;
74791;SDS011;63319;46.046;17.802;2023-12-14T08:25:55;12.57;;;7.18;;
74791;SDS011;63319;46.046;17.802;2023-12-14T08:29:01;15.13;;;8.15;;
74791;SDS011;63319;46.046;17.802;2023-12-14T08:32:05;11.43;;;6.78;;
74791;SDS011;63319;46.046;17.802;2023-12-14T08:35:08;10.48;;;6.85;;
74791;SDS011;63319;46.046;17.802;2023-12-14T08:38:12;11.05;;;6.43;;
74791;SDS011;63319;46.046;17.802;2023-12-14T08:41:15;9.23;;;6.22;;
74791;SDS011;63319;46.046;17.802;2023-12-14T08:44:18;7.90;;;4.97;;
74791;SDS011;63319;46.046;17.802;2023-12-14T08:47:22;8.55;;;4.75;;
74791;SDS011;63319;46.046;17.802;2023-12-14T08:50:27;8.45;;;5.45;;
74791;SDS011;63319;46.046;17.802;2023-12-14T08:53:31;8.88;;;4.97;;
74791;SDS011;63319;46.046;17.802;2023-12-14T08:56:34;7.57;;;4.50;;
74791;SDS011;63319;46.046;17.802;2023-12-14T08:59:37;7.90;;;4.70;;
74791;SDS011;63319;46.046;17.802;2023-12-14T09:02:45;7.30;;;4.32;;
74791;SDS011;63319;46.046;17.802;2023-12-14T09:05:49;7.13;;;4.40;;
74791;SDS011;63319;46.046;17.802;2023-12-14T09:08:53;6.93;;;4.13;;
74791;SDS011;63319;46.046;17.802;2023-12-14T09:11:56;7.47;;;4.20;;
74791;SDS011;63319;46.046;17.802;2023-12-14T09:15:00;6.88;;;3.97;;
74791;SDS011;63319;46.046;17.802;2023-12-14T09:18:04;7.03;;;3.92;;
74791;SDS011;63319;46.046;17.802;2023-12-14T09:21:08;8.57;;;4.35;;
74791;SDS011;63319;46.046;17.802;2023-12-14T09:24:11;8.47;;;3.67;;
74791;SDS011;63319;46.046;17.802;2023-12-14T09:27:15;8.17;;;4.07;;
74791;SDS011;63319;46.046;17.802;2023-12-14T09:30:18;9.38;;;4.50;;
74791;SDS011;63319;46.046;17.802;2023-12-14T09:33:22;7.00;;;3.88;;
74791;SDS011;63319;46.046;17.802;2023-12-14T09:36:25;6.50;;;3.00;;
74791;SDS011;63319;46.046;17.802;2023-12-14T09:39:28;6.35;;;3.17;;
74791;SDS011;63319;46.046;17.802;2023-12-14T09:42:34;9.75;;;3.67;;
74791;SDS011;63319;46.046;17.802;2023-12-14T09:45:41;6.90;;;3.38;;
74791;SDS011;63319;46.046;17.802;2023-12-14T09:48:47;6.23;;;3.30;;
74791;SDS011;63319;46.046;17.802;2023-12-14T09:51:53;5.88;;;3.00;;
74791;SDS011;63319;46.046;17.802;2023-12-14T09:54:56;9.13;;;3.30;;
74791;SDS011;63319;46.046;17.802;2023-12-14T09:57:59;7.00;;;3.87;;
74791;SDS011;63319;46.046;17.802;2023-12-14T10:01:24;7.93;;;3.72;;
74791;SDS011;63319;46.046;17.802;2023-12-14T10:04:31;6.35;;;3.22;;
74791;SDS011;63319;46.046;17.802;2023-12-14T10:07:42;12.65;;;3.78;;
74791;SDS011;63319;46.046;17.802;2023-12-14T10:10:47;7.85;;;3.50;;
74791;SDS011;63319;46.046;17.802;2023-12-14T10:13:52;8.98;;;3.53;;
74791;SDS011;63319;46.046;17.802;2023-12-14T10:16:55;7.13;;;3.42;;
74791;SDS011;63319;46.046;17.802;2023-12-14T10:20:05;7.67;;;4.13;;
74791;SDS011;63319;46.046;17.802;2023-12-14T10:23:11;4.78;;;2.30;;
74791;SDS011;63319;46.046;17.802;2023-12-14T10:26:15;6.70;;;3.08;;
74791;SDS011;63319;46.046;17.802;2023-12-14T10:29:18;6.30;;;2.97;;
74791;SDS011;63319;46.046;17.802;2023-12-14T10:32:22;7.38;;;3.17;;
74791;SDS011;63319;46.046;17.802;2023-12-14T10:35:26;6.60;;;3.30;;
74791;SDS011;63319;46.046;17.802;2023-12-14T10:38:30;10.32;;;3.80;;
74791;SDS011;63319;46.046;17.802;2023-12-14T10:41:36;6.50;;;3.33;;
74791;SDS011;63319;46.046;17.802;2023-12-14T10:44:39;9.68;;;4.55;;
74791;SDS011;63319;46.046;17.802;2023-12-14T10:48:02;7.30;;;4.18;;
74791;SDS011;63319;46.046;17.802;2023-12-14T10:51:07;10.85;;;4.85;;
74791;SDS011;63319;46.046;17.802;2023-12-14T10:54:11;9.88;;;5.20;;
74791;SDS011;63319;46.046;17.802;2023-12-14T10:57:15;7.75;;;3.78;;
74791;SDS011;63319;46.046;17.802;2023-12-14T11:00:18;9.13;;;3.85;;
74791;SDS011;63319;46.046;17.802;2023-12-14T11:03:21;9.30;;;4.47;;
74791;SDS011;63319;46.046;17.802;2023-12-14T11:06:30;9.77;;;3.97;;
74791;SDS011;63319;46.046;17.802;2023-12-14T11:09:35;9.95;;;4.35;;
74791;SDS011;63319;46.046;17.802;2023-12-14T11:12:50;8.75;;;4.00;;
74791;SDS011;63319;46.046;17.802;2023-12-14T11:15:53;9.60;;;4.70;;
74791;SDS011;63319;46.046;17.802;2023-12-14T11:22:30;8.88;;;4.63;;
74791;SDS011;63319;46.046;17.802;2023-12-14T11:25:33;8.23;;;3.93;;
74791;SDS011;63319;46.046;17.802;2023-12-14T11:28:47;10.07;;;5.13;;
74791;SDS011;63319;46.046;17.802;2023-12-14T11:31:52;13.38;;;6.00;;
74791;SDS011;63319;46.046;17.802;2023-12-14T11:34:56;10.10;;;3.93;;
74791;SDS011;63319;46.046;17.802;2023-12-14T11:38:01;7.82;;;3.58;;
74791;SDS011;63319;46.046;17.802;2023-12-14T11:41:08;7.07;;;3.90;;
74791;SDS011;63319;46.046;17.802;2023-12-14T11:44:21;8.07;;;4.85;;
74791;SDS011;63319;46.046;17.802;2023-12-14T11:47:26;6.25;;;4.03;;
74791;SDS011;63319;46.046;17.802;2023-12-14T11:50:32;9.33;;;3.17;;
74791;SDS011;63319;46.046;17.802;2023-12-14T11:53:37;6.75;;;3.03;;
74791;SDS011;63319;46.046;17.802;2023-12-14T11:56:47;6.32;;;2.63;;
74791;SDS011;63319;46.046;17.802;2023-12-14T11:59:52;5.80;;;3.10;;
74791;SDS011;63319;46.046;17.802;2023-12-14T12:03:11;13.13;;;5.97;;
74791;SDS011;63319;46.046;17.802;2023-12-14T12:06:20;8.90;;;3.42;;
74791;SDS011;63319;46.046;17.802;2023-12-14T12:09:34;8.85;;;4.30;;
74791;SDS011;63319;46.046;17.802;2023-12-14T12:12:44;8.00;;;3.53;;
74791;SDS011;63319;46.046;17.802;2023-12-14T12:15:48;10.98;;;5.50;;
74791;SDS011;63319;46.046;17.802;2023-12-14T12:18:53;8.70;;;3.60;;
74791;SDS011;63319;46.046;17.802;2023-12-14T12:21:56;9.13;;;4.32;;
74791;SDS011;63319;46.046;17.802;2023-12-14T12:25:02;10.98;;;4.65;;
74791;SDS011;63319;46.046;17.802;2023-12-14T12:28:17;6.57;;;3.70;;
74791;SDS011;63319;46.046;17.802;2023-12-14T12:31:20;6.75;;;3.00;;
74791;SDS011;63319;46.046;17.802;2023-12-14T12:34:23;5.00;;;1.90;;
74791;SDS011;63319;46.046;17.802;2023-12-14T12:37:27;5.70;;;2.03;;
74791;SDS011;63319;46.046;17.802;2023-12-14T12:40:31;6.03;;;2.95;;
74791;SDS011;63319;46.046;17.802;2023-12-14T12:43:36;6.22;;;3.20;;
74791;SDS011;63319;46.046;17.802;2023-12-14T12:46:39;9.20;;;5.07;;
74791;SDS011;63319;46.046;17.802;2023-12-14T12:49:42;8.50;;;4.07;;
74791;SDS011;63319;46.046;17.802;2023-12-14T12:52:46;10.02;;;5.60;;
74791;SDS011;63319;46.046;17.802;2023-12-14T12:55:52;7.15;;;3.78;;
74791;SDS011;63319;46.046;17.802;2023-12-14T12:58:55;6.53;;;3.15;;
74791;SDS011;63319;46.046;17.802;2023-12-14T13:01:58;7.35;;;4.22;;
74791;SDS011;63319;46.046;17.802;2023-12-14T13:05:01;9.07;;;4.03;;
74791;SDS011;63319;46.046;17.802;2023-12-14T13:08:05;8.00;;;3.92;;
74791;SDS011;63319;46.046;17.802;2023-12-14T13:11:08;9.63;;;2.67;;
74791;SDS011;63319;46.046;17.802;2023-12-14T13:14:12;5.85;;;3.03;;
74791;SDS011;63319;46.046;17.802;2023-12-14T13:17:15;7.90;;;3.33;;
74791;SDS011;63319;46.046;17.802;2023-12-14T13:20:21;5.67;;;2.60;;
74791;SDS011;63319;46.046;17.802;2023-12-14T13:23:24;4.53;;;2.30;;
74791;SDS011;63319;46.046;17.802;2023-12-14T13:26:28;5.55;;;3.13;;
74791;SDS011;63319;46.046;17.802;2023-12-14T13:29:31;7.78;;;3.40;;
74791;SDS011;63319;46.046;17.802;2023-12-14T13:32:36;10.18;;;3.95;;
74791;SDS011;63319;46.046;17.802;2023-12-14T13:35:39;7.33;;;3.13;;
74791;SDS011;63319;46.046;17.802;2023-12-14T13:38:42;6.10;;;3.13;;
74791;SDS011;63319;46.046;17.802;2023-12-14T13:41:45;5.82;;;2.70;;
74791;SDS011;63319;46.046;17.802;2023-12-14T13:44:52;6.85;;;2.75;;
74791;SDS011;63319;46.046;17.802;2023-12-14T13:47:55;5.43;;;2.73;;
74791;SDS011;63319;46.046;17.802;2023-12-14T13:50:58;6.93;;;3.25;;
74791;SDS011;63319;46.046;17.802;2023-12-14T13:54:01;7.30;;;3.78;;
74791;SDS011;63319;46.046;17.802;2023-12-14T13:57:05;7.60;;;3.95;;
74791;SDS011;63319;46.046;17.802;2023-12-14T14:00:08;8.50;;;3.92;;
74791;SDS011;63319;46.046;17.802;2023-12-14T14:03:11;8.68;;;4.85;;
74791;SDS011;63319;46.046;17.802;2023-12-14T14:06:16;10.77;;;5.80;;
74791;SDS011;63319;46.046;17.802;2023-12-14T14:09:20;10.00;;;5.20;;
74791;SDS011;63319;46.046;17.802;2023-12-14T14:12:23;11.27;;;4.13;;
74791;SDS011;63319;46.046;17.802;2023-12-14T14:15:26;12.82;;;4.88;;
74791;SDS011;63319;46.046;17.802;2023-12-14T14:18:30;6.95;;;2.97;;
74791;SDS011;63319;46.046;17.802;2023-12-14T14:21:34;6.63;;;3.17;;
74791;SDS011;63319;46.046;17.802;2023-12-14T14:24:37;7.07;;;3.10;;
74791;SDS011;63319;46.046;17.802;2023-12-14T14:27:40;6.28;;;2.85;;
74791;SDS011;63319;46.046;17.802;2023-12-14T14:30:43;6.63;;;2.77;;
74791;SDS011;63319;46.046;17.802;2023-12-14T14:33:47;7.32;;;4.00;;
74791;SDS011;63319;46.046;17.802;2023-12-14T14:36:50;7.85;;;4.07;;
74791;SDS011;63319;46.046;17.802;2023-12-14T14:39:54;13.30;;;7.70;;
74791;SDS011;63319;46.046;17.802;2023-12-14T14:42:57;11.23;;;6.05;;
74791;SDS011;63319;46.046;17.802;2023-12-14T14:46:01;11.30;;;5.40;;
74791;SDS011;63319;46.046;17.802;2023-12-14T14:49:04;14.52;;;7.43;;
74791;SDS011;63319;46.046;17.802;2023-12-14T14:52:08;8.35;;;4.13;;
74791;SDS011;63319;46.046;17.802;2023-12-14T14:55:11;17.95;;;8.43;;
74791;SDS011;63319;46.046;17.802;2023-12-14T14:58:14;20.20;;;9.75;;
74791;SDS011;63319;46.046;17.802;2023-12-14T15:01:17;10.23;;;4.93;;
74791;SDS011;63319;46.046;17.802;2023-12-14T15:04:21;14.02;;;6.43;;
74791;SDS011;63319;46.046;17.802;2023-12-14T15:07:24;10.77;;;5.63;;
74791;SDS011;63319;46.046;17.802;2023-12-14T15:10:27;16.23;;;8.77;;
74791;SDS011;63319;46.046;17.802;2023-12-14T15:13:30;19.35;;;10.73;;
74791;SDS011;63319;46.046;17.802;2023-12-14T15:16:33;19.73;;;11.38;;
74791;SDS011;63319;46.046;17.802;2023-12-14T15:19:37;27.88;;;14.65;;
74791;SDS011;63319;46.046;17.802;2023-12-14T15:22:40;36.17;;;20.85;;
74791;SDS011;63319;46.046;17.802;2023-12-14T15:25:43;33.42;;;19.15;;
74791;SDS011;63319;46.046;17.802;2023-12-14T15:28:46;33.78;;;18.70;;
74791;SDS011;63319;46.046;17.802;2023-12-14T15:31:50;37.57;;;20.57;;
74791;SDS011;63319;46.046;17.802;2023-12-14T15:34:55;31.83;;;17.08;;
74791;SDS011;63319;46.046;17.802;2023-12-14T15:37:58;40.22;;;21.27;;
74791;SDS011;63319;46.046;17.802;2023-12-14T15:41:01;29.27;;;18.77;;
74791;SDS011;63319;46.046;17.802;2023-12-14T15:44:04;28.55;;;17.25;;
74791;SDS011;63319;46.046;17.802;2023-12-14T15:47:07;29.85;;;16.52;;
74791;SDS011;63319;46.046;17.802;2023-12-14T15:50:11;20.40;;;12.05;;
74791;SDS011;63319;46.046;17.802;2023-12-14T15:53:14;18.70;;;12.38;;
74791;SDS011;63319;46.046;17.802;2023-12-14T15:56:17;21.02;;;9.63;;
74791;SDS011;63319;46.046;17.802;2023-12-14T15:59:21;17.08;;;10.82;;
74791;SDS011;63319;46.046;17.802;2023-12-14T16:02:24;21.37;;;10.40;;
74791;SDS011;63319;46.046;17.802;2023-12-14T16:05:27;24.38;;;12.50;;
